Farmhaven, Mississippi
Current Conditions -  °F | °C
As of 5:54 PM on Friday 31 Oct 2014 (Local Time) from KJAN Reporting Station
Broken Clouds Broken Clouds  
Wind Chill: 59°   Ceiling: 3900
Heat Index: 59°   Visibility: 10mi
Dew Point: 43°   Wind: 17mph
Humidity: 55%   Direction: 350°N
Pressure: 30.14"   Gusts: 28mph
Location:  32.6346°N, 89.9822°W
Report Text: KJAN 312254Z 35015G24KT 10SM BKN039 15/06 A3014 RMK AO2 PK WND 35028/2206 SLP207 T01500061
Loading
Personal Weather Stations






























Interactive Weather Map
Tropical Storm Tracking
New forecast layout! Learn more

10-Day Weather Forecast

Advertisements
Track Severe Weather on mobile